Time;durP1;ratioP1;P1;durP2;ratioP2;P2;SDS_P1;SDS_P2;PMS_P1;PMS_P2;Temp;Humidity;BMP_temperature;BMP_pressure;BME280_temperature;BME280_humidity;BME280_pressure;Samples;Min_cycle;Max_cycle;Signal;HPM_P1;HPM_P2
2022/06/15 00:00:40;;;;;;;9.80;4.08;;;;;;;12.03;79.75;100228.19;1745687;82;21097;-71
2022/06/15 00:03:07;;;;;;;10.03;4.33;;;;;;;11.98;79.93;100221.77;1744944;82;21021;-70
2022/06/15 00:05:33;;;;;;;9.53;4.15;;;;;;;11.94;79.89;100221.53;1744978;82;21521;-71
2022/06/15 00:08:01;;;;;;;15.10;5.25;;;;;;;11.92;80.39;100222.91;1744723;82;21157;-72
2022/06/15 00:10:27;;;;;;;12.80;5.08;;;;;;;11.89;80.65;100213.80;1745253;82;21084;-71
2022/06/15 00:12:55;;;;;;;11.03;4.90;;;;;;;11.86;81.24;100215.20;1723857;82;21093;-71
2022/06/15 00:15:22;;;;;;;14.98;6.03;;;;;;;11.84;81.51;100206.48;1715154;83;21029;-72
2022/06/15 00:17:48;;;;;;;11.93;5.10;;;;;;;11.84;81.74;100214.39;1715460;83;21058;-71
2022/06/15 00:20:15;;;;;;;15.18;6.05;;;;;;;11.82;81.70;100210.95;1715006;83;21708;-71
2022/06/15 00:22:42;;;;;;;10.70;4.67;;;;;;;11.82;82.43;100213.59;1715209;83;21034;-71
2022/06/15 00:25:09;;;;;;;16.80;6.47;;;;;;;11.81;82.87;100211.04;1715228;83;21140;-70
2022/06/15 00:27:37;;;;;;;15.68;5.92;;;;;;;11.79;82.79;100211.09;1715251;83;21089;-71
2022/06/15 00:30:06;;;;;;;16.90;5.60;;;;;;;11.74;83.35;100211.75;1715378;83;21053;-71
2022/06/15 00:32:33;;;;;;;8.10;4.08;;;;;;;11.69;83.92;100209.30;1715666;83;21777;-70
2022/06/15 00:35:00;;;;;;;9.65;4.55;;;;;;;11.65;84.59;100207.69;1715310;83;21018;-71
2022/06/15 00:37:26;;;;;;;10.15;5.45;;;;;;;11.64;85.26;100209.06;1715401;83;21053;-70
2022/06/15 00:39:53;;;;;;;8.13;4.87;;;;;;;11.62;85.96;100209.58;1715485;83;21093;-73
2022/06/15 00:42:20;;;;;;;13.72;5.60;;;;;;;11.61;86.66;100207.88;1715225;83;21117;-71
2022/06/15 00:44:49;;;;;;;8.98;4.35;;;;;;;11.60;87.08;100210.13;1715516;83;21155;-71
2022/06/15 00:47:25;;;;;;;8.43;4.55;;;;;;;11.58;87.75;100205.38;1715169;82;21040;-71
2022/06/15 00:49:59;;;;;;;11.10;4.72;;;;;;;11.58;87.80;100206.69;1715222;83;21426;-71
2022/06/15 00:52:53;;;;;;;11.70;5.30;;;;;;;11.55;87.63;100205.89;1715116;82;20991;-70
2022/06/15 00:55:27;;;;;;;9.78;4.70;;;;;;;11.53;87.83;100207.73;1715272;83;21085;-70
2022/06/15 00:57:55;;;;;;;16.12;5.25;;;;;;;11.49;87.97;100206.13;1715351;83;21052;-71
2022/06/15 01:00:22;;;;;;;13.93;5.20;;;;;;;11.46;87.50;100203.62;1715231;81;21563;-71
2022/06/15 01:02:50;;;;;;;9.65;5.05;;;;;;;11.46;87.31;100204.09;1715206;83;21034;-71
2022/06/15 01:05:43;;;;;;;7.60;4.40;;;;;;;11.45;86.89;100202.35;1715145;83;21069;-71
2022/06/15 01:08:27;;;;;;;10.05;4.25;;;;;;;11.43;87.00;100202.40;1715385;83;21541;-71
2022/06/15 01:11:27;;;;;;;9.55;4.20;;;;;;;11.41;87.71;100208.22;1715021;83;21153;-72
2022/06/15 01:14:17;;;;;;;9.78;5.10;;;;;;;11.39;88.35;100201.27;1719853;81;21112;-71
2022/06/15 01:16:56;;;;;;;12.45;4.90;;;;;;;11.36;88.15;100210.16;1715308;83;21113;-70
2022/06/15 01:20:18;;;;;;;11.93;4.62;;;;;;;11.33;87.81;100212.92;1694623;83;21049;-70
2022/06/15 01:23:11;;;;;;;10.58;4.78;;;;;;;11.31;87.84;100211.66;1714798;83;21065;-71
2022/06/15 01:26:06;;;;;;;17.17;4.83;;;;;;;11.31;88.03;100216.07;1715140;83;21138;-70
2022/06/15 01:28:41;;;;;;;9.45;4.45;;;;;;;11.30;87.61;100219.17;1715381;83;21089;-71
2022/06/15 01:31:23;;;;;;;8.25;4.17;;;;;;;11.29;87.48;100219.22;1715086;83;21037;-73
2022/06/15 01:34:19;;;;;;;7.17;3.47;;;;;;;11.29;87.45;100221.86;1715634;83;21034;-70
2022/06/15 01:37:13;;;;;;;10.82;4.15;;;;;;;11.29;87.46;100217.44;1715300;83;21089;-72
2022/06/15 01:40:05;;;;;;;12.00;4.62;;;;;;;11.30;87.79;100223.59;1715049;83;21113;-72
2022/06/15 01:42:38;;;;;;;7.58;3.77;;;;;;;11.30;87.71;100224.91;1709956;81;21033;-71
2022/06/15 01:45:09;;;;;;;10.53;4.08;;;;;;;11.32;88.05;100221.30;1715210;83;21133;-69
2022/06/15 01:47:36;;;;;;;7.90;4.22;;;;;;;11.34;88.33;100222.53;1715436;82;21817;-70
2022/06/15 01:50:21;;;;;;;6.45;3.67;;;;;;;11.35;88.50;100229.55;1717646;83;21062;-71
2022/06/15 01:53:01;;;;;;;15.35;4.90;;;;;;;11.35;88.81;100229.55;1717779;83;21164;-71
2022/06/15 01:55:42;;;;;;;11.20;5.33;;;;;;;11.38;89.04;100233.84;1717735;83;21146;-71
2022/06/15 01:58:10;;;;;;;10.88;5.25;;;;;;;11.39;89.02;100228.52;1717666;83;21128;-70
2022/06/15 02:00:39;;;;;;;12.30;6.10;;;;;;;11.41;88.69;100234.59;1691986;83;21088;-71
2022/06/15 02:03:35;;;;;;;19.70;5.78;;;;;;;11.43;88.00;100230.09;1717909;83;21061;-72
2022/06/15 02:06:31;;;;;;;9.10;4.70;;;;;;;11.47;88.16;100229.05;1716958;83;21155;-72
2022/06/15 02:09:27;;;;;;;13.58;5.40;;;;;;;11.47;88.00;100226.42;1717719;83;21073;-71
2022/06/15 02:11:54;;;;;;;12.40;5.30;;;;;;;11.51;87.95;100233.30;1725955;82;21104;-70
2022/06/15 02:14:27;;;;;;;18.05;5.92;;;;;;;11.53;87.76;100238.06;1747498;81;21089;-71
2022/06/15 02:17:17;;;;;;;12.95;5.37;;;;;;;11.57;88.00;100244.52;1747900;82;21089;-71
2022/06/15 02:19:49;;;;;;;10.53;5.30;;;;;;;11.59;88.03;100242.69;1747590;81;21098;-71
2022/06/15 02:22:22;;;;;;;11.48;5.22;;;;;;;11.62;87.24;100245.19;1746971;82;21101;-70
2022/06/15 02:24:51;;;;;;;13.35;5.33;;;;;;;11.60;87.42;100236.51;1747461;82;21045;-71
2022/06/15 02:27:18;;;;;;;10.85;5.08;;;;;;;11.65;87.05;100242.45;1744813;82;21194;-72
2022/06/15 02:29:49;;;;;;;9.78;4.58;;;;;;;11.68;87.20;100242.32;1745918;82;21257;-71
2022/06/15 02:32:17;;;;;;;9.40;4.57;;;;;;;11.71;87.35;100243.08;1747624;82;21522;-71
2022/06/15 02:34:45;;;;;;;9.53;4.50;;;;;;;11.75;87.24;100245.11;1747447;82;21061;-73
2022/06/15 02:37:11;;;;;;;10.98;5.10;;;;;;;11.79;87.65;100255.09;1747747;82;21156;-70
2022/06/15 02:39:39;;;;;;;15.08;5.70;;;;;;;11.85;87.82;100254.39;1747515;82;21549;-70
2022/06/15 02:42:28;;;;;;;12.65;5.53;;;;;;;11.88;87.30;100255.61;1747848;82;21148;-71
2022/06/15 02:45:01;;;;;;;14.98;6.08;;;;;;;11.92;87.02;100258.53;1747890;82;21530;-71
2022/06/15 02:47:31;;;;;;;14.50;5.75;;;;;;;11.98;86.53;100257.87;1747719;82;21064;-70
2022/06/15 02:49:59;;;;;;;15.32;6.33;;;;;;;11.98;86.28;100252.59;1745007;80;21491;-71
2022/06/15 02:52:31;;;;;;;15.80;6.40;;;;;;;12.01;85.80;100253.78;1744968;82;21033;-71
2022/06/15 02:55:00;;;;;;;11.93;6.08;;;;;;;12.02;85.47;100259.47;1744904;82;21491;-71
2022/06/15 02:57:26;;;;;;;16.32;6.58;;;;;;;12.03;85.83;100261.18;1745241;82;21061;-71
2022/06/15 02:59:55;;;;;;;10.63;5.67;;;;;;;12.08;85.97;100264.52;1744654;82;21601;-70
2022/06/15 03:02:24;;;;;;;19.87;6.30;;;;;;;12.11;85.81;100254.67;1744966;82;21018;-71
2022/06/15 03:04:52;;;;;;;19.23;6.90;;;;;;;12.12;85.95;100246.28;1723323;82;21121;-70
2022/06/15 03:07:22;;;;;;;13.58;6.53;;;;;;;12.29;85.97;100263.61;1744619;82;21589;-70
2022/06/15 03:09:49;;;;;;;15.50;6.47;;;;;;;12.39;85.82;100258.33;1744530;82;21251;-71
2022/06/15 03:12:17;;;;;;;10.72;5.53;;;;;;;12.52;85.06;100265.75;1731692;82;21080;-70
2022/06/15 03:14:47;;;;;;;16.95;6.95;;;;;;;12.65;84.45;100262.09;1715139;82;21045;-71
2022/06/15 03:17:14;;;;;;;15.05;5.90;;;;;;;12.77;83.46;100259.79;1715040;83;21085;-72
2022/06/15 03:19:53;;;;;;;14.38;5.50;;;;;;;12.89;82.98;100263.67;1715113;83;21116;-72
2022/06/15 03:22:19;;;;;;;11.75;5.80;;;;;;;13.04;82.77;100264.75;1715261;83;21190;-72
2022/06/15 03:24:48;;;;;;;12.23;5.12;;;;;;;13.20;81.65;100255.66;1715016;83;21033;-71
2022/06/15 03:27:18;;;;;;;15.90;5.67;;;;;;;13.35;81.07;100260.76;1715254;83;21558;-70
2022/06/15 03:29:47;;;;;;;10.25;4.58;;;;;;;13.51;80.41;100263.55;1715683;83;21041;-70
2022/06/15 03:32:15;;;;;;;11.70;4.53;;;;;;;13.67;79.91;100267.66;1715268;83;21049;-70
2022/06/15 04:36:03;;;;;;;3.90;2.17;;;;;;;17.81;61.24;100284.37;1685447;83;21227;-70
2022/06/15 04:38:30;;;;;;;5.90;2.10;;;;;;;18.04;61.00;100284.69;1669530;85;21527;-72
2022/06/15 04:41:05;;;;;;;7.85;1.80;;;;;;;18.19;59.64;100280.98;1723206;82;21042;-71
2022/06/15 04:43:33;;;;;;;7.28;2.25;;;;;;;18.28;59.53;100284.02;1736086;82;21109;-71
2022/06/15 04:46:03;;;;;;;7.15;2.00;;;;;;;18.41;57.09;100284.91;1740616;82;21073;-72
2022/06/15 04:48:30;;;;;;;4.60;1.82;;;;;;;18.43;56.63;100286.51;1743218;82;21049;-71
2022/06/15 04:51:11;;;;;;;9.23;1.90;;;;;;;18.52;57.31;100290.83;1743340;82;21092;-71
2022/06/15 04:53:39;;;;;;;6.25;2.12;;;;;;;18.74;56.79;100286.23;1732569;81;21084;-72
2022/06/15 04:56:07;;;;;;;3.67;2.00;;;;;;;18.95;55.97;100282.59;1693448;83;21597;-72
2022/06/15 04:58:34;;;;;;;5.75;1.57;;;;;;;19.11;54.22;100284.56;1714141;83;21541;-72
2022/06/15 05:01:02;;;;;;;4.40;1.80;;;;;;;19.23;54.04;100281.51;1713772;83;21065;-72
2022/06/15 05:03:29;;;;;;;5.50;2.10;;;;;;;19.33;54.23;100281.24;1735456;82;21045;-72
2022/06/15 05:05:56;;;;;;;5.60;1.70;;;;;;;19.46;53.39;100278.08;1744720;82;21037;-72
2022/06/15 05:08:24;;;;;;;3.33;1.90;;;;;;;19.46;52.26;100291.42;1744559;82;21037;-71
2022/06/15 05:10:53;;;;;;;4.08;2.10;;;;;;;19.40;52.70;100283.84;1732131;82;21155;-73
2022/06/15 05:13:20;;;;;;;5.15;1.80;;;;;;;19.42;52.14;100284.59;1714972;83;21057;-72
2022/06/15 05:15:50;;;;;;;7.60;2.00;;;;;;;19.50;52.04;100284.87;1715014;83;21041;-72
2022/06/15 05:18:18;;;;;;;3.75;2.00;;;;;;;19.68;51.40;100289.88;1715177;83;21093;-73
2022/06/15 05:20:45;;;;;;;6.95;1.82;;;;;;;19.91;51.50;100288.22;1714973;83;21104;-70
2022/06/15 05:23:15;;;;;;;3.85;1.62;;;;;;;20.18;51.25;100286.67;1715183;83;21131;-73
2022/06/15 05:25:58;;;;;;;3.52;1.60;;;;;;;20.58;50.09;100295.72;1663362;84;21071;-71
2022/06/15 05:28:25;;;;;;;4.80;1.82;;;;;;;20.88;48.10;100287.64;1709547;83;21069;-71
2022/06/15 05:31:09;;;;;;;6.90;1.80;;;;;;;21.08;47.82;100290.11;1713580;83;21190;-72
2022/06/15 05:33:40;;;;;;;7.85;1.80;;;;;;;21.15;47.68;100297.53;1713951;83;21132;-72
2022/06/15 05:36:11;;;;;;;7.42;2.42;;;;;;;21.35;46.80;100301.81;1714584;83;21189;-72
2022/06/15 05:38:37;;;;;;;13.28;2.10;;;;;;;21.53;46.19;100292.80;1714774;82;21780;-72
2022/06/15 05:41:04;;;;;;;7.08;1.62;;;;;;;21.78;45.49;100303.23;1714725;83;21057;-72
2022/06/15 05:43:32;;;;;;;6.35;1.37;;;;;;;21.99;44.47;100294.42;1718649;82;21057;-73
2022/06/15 05:46:15;;;;;;;5.92;1.70;;;;;;;22.06;43.64;100294.28;1714774;83;21022;-73
2022/06/15 05:48:42;;;;;;;5.15;1.40;;;;;;;22.14;43.80;100299.03;1715182;83;21767;-72
2022/06/15 05:51:09;;;;;;;5.22;1.40;;;;;;;22.17;43.49;100296.08;1714405;83;21410;-72
2022/06/15 05:53:38;;;;;;;4.10;1.55;;;;;;;22.10;43.12;100289.52;1713836;83;21084;-70
2022/06/15 05:56:04;;;;;;;7.12;1.30;;;;;;;21.97;43.21;100301.27;1714568;83;21045;-71
2022/06/15 05:58:31;;;;;;;2.65;1.20;;;;;;;21.86;43.36;100298.62;1714467;83;21077;-71
2022/06/15 06:01:25;;;;;;;5.92;1.45;;;;;;;21.82;43.16;100298.50;1714998;83;20991;-73
2022/06/15 06:03:51;;;;;;;4.22;1.37;;;;;;;21.77;42.81;100299.37;1703162;83;21060;-73
2022/06/15 06:06:18;;;;;;;4.35;1.40;;;;;;;21.78;43.31;100303.73;1715068;83;21069;-72
2022/06/15 06:08:46;;;;;;;4.22;1.40;;;;;;;21.75;42.52;100305.34;1714790;83;21029;-72
2022/06/15 06:11:14;;;;;;;8.93;1.32;;;;;;;21.89;43.02;100301.53;1715121;83;21609;-72
2022/06/15 06:13:40;;;;;;;4.65;1.72;;;;;;;22.02;41.99;100306.72;1714752;83;21124;-71
2022/06/15 06:16:08;;;;;;;3.70;1.40;;;;;;;22.14;42.68;100301.70;1715221;83;21093;-72
2022/06/15 06:18:35;;;;;;;4.85;1.37;;;;;;;22.38;42.13;100288.98;1714897;83;21064;-72
2022/06/15 06:21:03;;;;;;;2.77;1.30;;;;;;;22.54;41.54;100303.27;1714074;83;21053;-70
2022/06/15 06:23:30;;;;;;;2.87;1.27;;;;;;;22.74;39.87;100301.58;1713601;83;21017;-72
2022/06/15 06:25:56;;;;;;;2.83;1.42;;;;;;;22.87;39.56;100300.52;1715290;83;21067;-72
2022/06/15 06:28:34;;;;;;;4.83;1.35;;;;;;;22.93;38.88;100302.69;1714407;83;21072;-71
2022/06/15 06:31:03;;;;;;;5.53;1.62;;;;;;;22.98;39.29;100306.70;1714480;83;21111;-73
2022/06/15 06:33:33;;;;;;;6.70;1.50;;;;;;;23.01;39.65;100302.92;1714905;83;21030;-72
2022/06/15 06:36:04;;;;;;;3.33;1.27;;;;;;;23.09;39.33;100304.94;1715045;83;21017;-73
2022/06/15 06:38:30;;;;;;;4.12;1.57;;;;;;;23.29;38.59;100303.20;1719582;82;21216;-72
2022/06/15 06:40:59;;;;;;;2.45;1.25;;;;;;;23.40;38.21;100305.80;1715049;83;21065;-72
2022/06/15 06:43:26;;;;;;;5.90;1.40;;;;;;;23.52;37.46;100295.30;1715033;83;21068;-72
2022/06/15 06:45:53;;;;;;;3.65;1.20;;;;;;;23.71;37.29;100305.75;1715077;83;21108;-71
2022/06/15 06:48:19;;;;;;;6.35;1.40;;;;;;;23.94;37.82;100303.22;1715028;83;21076;-73
2022/06/15 06:50:46;;;;;;;3.77;1.40;;;;;;;24.10;36.54;100309.91;1714875;83;21114;-72
2022/06/15 06:53:13;;;;;;;3.22;1.10;;;;;;;24.13;35.80;100313.66;1715108;83;21147;-72
2022/06/15 06:55:40;;;;;;;6.45;1.62;;;;;;;24.14;35.70;100312.18;1714806;83;21045;-72
2022/06/15 06:58:08;;;;;;;5.58;1.52;;;;;;;24.16;35.77;100308.86;1714887;81;21553;-72
2022/06/15 07:00:36;;;;;;;3.55;1.42;;;;;;;24.05;35.51;100316.55;1697486;84;21066;-72
2022/06/15 07:03:05;;;;;;;9.03;1.82;;;;;;;23.97;36.24;100313.72;1710725;83;21073;-72
2022/06/15 07:05:34;;;;;;;5.20;1.60;;;;;;;24.06;36.12;100317.39;1714971;83;21069;-72
2022/06/15 07:08:01;;;;;;;5.47;1.70;;;;;;;24.10;34.86;100312.59;1714748;83;21577;-72
2022/06/15 07:10:28;;;;;;;8.53;2.12;;;;;;;24.18;35.58;100300.16;1714933;83;21209;-73
2022/06/15 07:12:56;;;;;;;5.97;2.20;;;;;;;24.37;35.73;100306.03;1714977;83;21097;-72
2022/06/15 07:15:22;;;;;;;7.85;2.25;;;;;;;24.53;34.52;100296.58;1715221;81;21190;-72
2022/06/15 07:17:51;;;;;;;7.55;2.30;;;;;;;24.59;34.89;100299.52;1714949;83;21077;-71
2022/06/15 07:20:18;;;;;;;6.97;2.10;;;;;;;24.73;33.81;100302.27;1715032;83;21503;-72
2022/06/15 07:22:46;;;;;;;9.25;2.75;;;;;;;24.82;33.60;100308.13;1697547;83;21106;-73
2022/06/15 07:25:13;;;;;;;5.08;1.77;;;;;;;24.91;34.16;100311.34;1697570;84;21101;-72
2022/06/15 07:27:41;;;;;;;19.57;3.45;;;;;;;24.81;33.65;100305.10;1700209;83;21143;-72
2022/06/15 07:30:14;;;;;;;4.22;1.70;;;;;;;24.74;34.24;100308.53;1714953;83;21118;-72
2022/06/15 07:32:42;;;;;;;4.15;1.37;;;;;;;24.62;34.45;100313.22;1715018;83;21104;-71
2022/06/15 07:35:25;;;;;;;11.63;1.55;;;;;;;24.67;34.33;100298.82;1714860;83;21085;-72
2022/06/15 07:37:52;;;;;;;2.90;1.25;;;;;;;24.65;33.47;100303.50;1718268;82;21056;-72
2022/06/15 07:40:21;;;;;;;10.25;1.82;;;;;;;24.58;33.69;100299.69;1725128;83;21203;-71
2022/06/15 07:42:49;;;;;;;3.62;1.45;;;;;;;24.73;34.29;100300.92;1719395;83;21050;-73
2022/06/15 07:45:17;;;;;;;3.33;1.22;;;;;;;24.91;33.48;100299.22;1715210;83;21061;-72
2022/06/15 07:50:29;;;;;;;6.75;1.45;;;;;;;25.11;32.38;100291.91;1715394;83;21648;-73
2022/06/15 07:52:56;;;;;;;3.92;1.10;;;;;;;24.95;32.84;100299.75;1715739;83;21341;-72
2022/06/15 07:55:33;;;;;;;3.85;1.47;;;;;;;25.15;32.57;100289.78;1715517;83;21072;-73
2022/06/15 07:58:00;;;;;;;9.85;1.75;;;;;;;25.40;32.58;100295.52;1715663;83;21125;-72
2022/06/15 08:00:29;;;;;;;7.00;2.05;;;;;;;25.77;32.67;100289.22;1715344;83;21002;-73
2022/06/15 08:02:58;;;;;;;20.30;2.60;;;;;;;25.93;31.86;100292.16;1715292;83;21549;-72
2022/06/15 08:05:26;;;;;;;12.03;2.10;;;;;;;26.02;30.95;100284.50;1715324;83;21270;-73
2022/06/15 08:07:53;;;;;;;3.37;1.20;;;;;;;26.13;31.05;100274.80;1715530;83;21104;-73
2022/06/15 08:10:23;;;;;;;3.50;1.30;;;;;;;26.30;30.71;100284.42;1715252;83;21123;-73
2022/06/15 08:12:51;;;;;;;4.42;1.60;;;;;;;26.30;30.00;100281.72;1715219;83;21608;-73
2022/06/15 08:15:18;;;;;;;5.05;1.50;;;;;;;26.13;30.27;100281.55;1715381;83;21045;-72
2022/06/15 08:17:50;;;;;;;8.38;1.65;;;;;;;26.12;30.35;100289.31;1715203;83;21138;-71
2022/06/15 08:20:35;;;;;;;4.58;1.57;;;;;;;26.07;30.12;100280.83;1715580;83;21100;-72
2022/06/15 08:23:11;;;;;;;3.70;1.50;;;;;;;26.18;29.87;100288.34;1715399;83;21609;-71
2022/06/15 08:25:41;;;;;;;7.10;1.60;;;;;;;26.16;28.92;100282.61;1715237;83;21645;-72
2022/06/15 08:28:10;;;;;;;8.68;1.42;;;;;;;25.81;29.93;100279.32;1715189;83;21572;-72
2022/06/15 08:30:37;;;;;;;3.30;1.10;;;;;;;25.84;29.91;100275.00;1715147;83;21544;-74
2022/06/15 08:33:05;;;;;;;5.10;1.47;;;;;;;26.15;29.20;100270.61;1715294;83;21080;-72
2022/06/15 08:35:32;;;;;;;3.10;1.37;;;;;;;26.34;28.58;100271.81;1715529;83;21537;-71
2022/06/15 08:38:01;;;;;;;7.53;1.90;;;;;;;26.53;28.93;100274.83;1713175;82;21033;-72
2022/06/15 08:40:27;;;;;;;10.78;2.00;;;;;;;26.51;28.96;100277.34;1699306;84;21102;-71
2022/06/15 08:42:59;;;;;;;15.00;3.25;;;;;;;26.60;29.51;100278.30;1696860;84;21135;-71
2022/06/15 08:45:47;;;;;;;4.83;1.20;;;;;;;26.71;29.04;100269.91;1697082;84;21053;-72
2022/06/15 08:48:47;;;;;;;4.12;1.00;;;;;;;26.57;28.36;100276.25;1697037;83;21058;-73
2022/06/15 08:51:22;;;;;;;3.22;1.00;;;;;;;26.49;28.64;100269.39;1697820;83;21038;-72
2022/06/15 08:54:12;;;;;;;3.95;1.00;;;;;;;26.47;28.82;100272.75;1697551;84;21545;-72
2022/06/15 08:56:44;;;;;;;1.27;0.70;;;;;;;26.50;28.32;100273.80;1697341;84;21361;-71
2022/06/15 08:59:38;;;;;;;6.03;1.22;;;;;;;26.47;28.79;100272.75;1696899;83;21091;-73
2022/06/15 09:02:51;;;;;;;4.28;1.02;;;;;;;26.54;29.32;100269.79;1697022;84;21077;-73
2022/06/15 09:05:43;;;;;;;4.08;1.17;;;;;;;26.81;29.11;100262.57;1696338;83;21062;-73
2022/06/15 09:08:45;;;;;;;1.87;1.00;;;;;;;26.90;27.92;100270.23;1696946;84;21074;-73
2022/06/15 09:11:20;;;;;;;1.42;0.65;;;;;;;26.77;28.61;100269.29;1617363;88;21325;-72
2022/06/15 09:14:28;;;;;;;42.58;6.20;;;;;;;26.74;28.47;100272.31;1682436;84;21086;-71
2022/06/15 09:17:10;;;;;;;3.77;0.88;;;;;;;26.84;28.47;100271.70;1696923;84;21015;-71
2022/06/15 09:19:40;;;;;;;;;;;;;;;26.82;27.80;100271.00;1699627;84;21062;-73
2022/06/15 09:22:11;;;;;;;4.62;1.17;;;;;;;26.76;28.56;100273.02;1697412;84;20335;-72
2022/06/15 09:24:51;;;;;;;4.75;0.90;;;;;;;26.80;28.22;100260.86;1693718;84;21150;-71
2022/06/15 09:27:35;;;;;;;2.62;1.00;;;;;;;26.82;28.58;100269.66;1697821;84;21141;-72
2022/06/15 09:30:13;;;;;;;4.78;0.70;;;;;;;26.73;27.90;100257.09;1697303;84;21107;-72
2022/06/15 09:32:45;;;;;;;4.15;1.30;;;;;;;26.40;28.78;100270.33;1696418;84;21093;-72
2022/06/15 09:35:20;;;;;;;4.08;1.05;;;;;;;25.84;29.11;100277.69;1696586;84;21019;-72
2022/06/15 09:37:51;;;;;;;5.70;1.10;;;;;;;25.39;28.98;100273.61;1694911;83;21136;-73
2022/06/15 09:40:18;;;;;;;5.00;1.00;;;;;;;25.39;29.22;100277.66;1696717;84;21070;-73
2022/06/15 09:42:58;;;;;;;1.95;0.93;;;;;;;25.54;30.08;100278.36;1696794;83;21050;-72
2022/06/15 09:45:49;;;;;;;2.58;1.02;;;;;;;25.85;29.18;100277.19;1694681;83;21028;-72
2022/06/15 09:48:31;;;;;;;;;;;;;;;26.11;29.08;100280.87;1717912;83;21051;-71
2022/06/15 09:51:19;;;;;;;2.12;0.68;;;;;;;26.44;28.15;100273.06;1715276;83;21560;-73
2022/06/15 09:54:25;;;;;;;2.05;0.80;;;;;;;26.61;27.39;100271.88;1647658;83;21241;-71
2022/06/15 09:56:53;;;;;;;3.95;0.80;;;;;;;26.28;27.28;100264.83;1715188;83;22278;-71
2022/06/15 09:59:20;;;;;;;4.25;0.80;;;;;;;26.31;27.65;100263.16;1715181;83;21063;-72
2022/06/15 10:01:47;;;;;;;3.98;0.80;;;;;;;26.26;27.66;100270.88;1714673;83;21091;-71
2022/06/15 10:04:24;;;;;;;3.60;0.80;;;;;;;26.10;27.98;100273.77;1715188;83;21100;-72
2022/06/15 10:06:59;;;;;;;2.22;0.70;;;;;;;25.83;27.63;100267.04;1696598;83;21104;-71
2022/06/15 10:09:29;;;;;;;6.45;1.37;;;;;;;25.89;28.60;100274.57;1715264;82;21584;-73
2022/06/15 10:14:50;;;;;;;2.05;0.60;;;;;;;26.44;27.36;100270.37;1715161;83;21119;-72
2022/06/15 10:17:34;;;;;;;2.12;0.60;;;;;;;26.67;26.46;100255.05;1715207;82;21560;-72
2022/06/15 10:20:00;;;;;;;0.80;0.53;;;;;;;26.75;26.71;100263.19;1714965;83;21576;-72
2022/06/15 10:22:32;;;;;;;2.17;0.80;;;;;;;27.00;26.85;100260.98;1714953;83;21107;-72
2022/06/15 10:24:59;;;;;;;1.57;0.60;;;;;;;27.22;25.97;100249.33;1714967;83;21525;-73
2022/06/15 10:27:36;;;;;;;2.87;0.70;;;;;;;27.29;26.09;100249.53;1720178;82;21047;-73
2022/06/15 10:30:12;;;;;;;2.87;0.60;;;;;;;27.22;26.15;100252.51;1714641;83;21160;-72
2022/06/15 10:33:00;;;;;;;2.67;0.82;;;;;;;27.53;25.46;100251.47;1714687;82;21103;-73
2022/06/15 10:35:31;;;;;;;2.05;0.62;;;;;;;27.87;25.49;100250.59;1715362;83;21042;-72
2022/06/15 10:38:01;;;;;;;5.25;0.70;;;;;;;27.92;25.00;100253.64;1715126;83;21052;-72
2022/06/15 10:40:39;;;;;;;3.00;0.70;;;;;;;27.89;25.47;100241.80;1730066;82;21091;-71
2022/06/15 10:43:18;;;;;;;4.92;0.80;;;;;;;27.87;26.20;100238.41;1740095;82;21250;-73
2022/06/15 10:46:00;;;;;;;1.95;0.90;;;;;;;27.99;25.73;100251.95;1740471;82;21072;-71
2022/06/15 10:48:47;;;;;;;4.15;0.70;;;;;;;28.26;25.22;100245.90;1740248;82;28797;-73
2022/06/15 10:51:32;;;;;;;1.07;0.60;;;;;;;28.42;24.92;100244.54;1709822;82;21101;-72
2022/06/15 11:05:33;;;;;;;1.12;0.60;;;;;;;28.58;24.51;100221.53;1814453;79;22585;-71
2022/06/15 11:08:07;;;;;;;3.17;0.62;;;;;;;28.37;24.77;100230.67;1787573;80;21005;-73
2022/06/15 11:10:41;;;;;;;1.10;0.55;;;;;;;28.33;24.54;100229.31;1786701;80;22194;-72
2022/06/15 11:13:54;;;;;;;3.70;0.98;;;;;;;28.10;24.27;100220.50;1787502;80;21044;-71
2022/06/15 11:19:18;;;;;;;2.83;0.62;;;;;;;27.82;25.80;100231.59;1787695;80;21072;-74
2022/06/15 11:21:56;;;;;;;1.47;0.50;;;;;;;27.92;25.24;100221.16;1787314;80;20977;-73
2022/06/15 11:24:46;;;;;;;1.25;0.65;;;;;;;28.07;25.31;100219.98;1787354;80;21206;-72
2022/06/15 11:27:29;;;;;;;1.98;0.70;;;;;;;28.26;25.43;100224.23;1787384;80;21111;-72
2022/06/15 11:30:22;;;;;;;2.12;0.50;;;;;;;28.54;23.92;100225.59;1787888;80;21100;-73
2022/06/15 11:32:56;;;;;;;3.62;0.60;;;;;;;28.71;23.87;100231.82;1763912;80;21018;-72
2022/06/15 11:35:36;;;;;;;1.37;0.62;;;;;;;28.73;23.74;100224.88;1758874;81;21096;-72
2022/06/15 11:38:34;;;;;;;1.35;0.40;;;;;;;28.70;24.06;100225.23;1758693;81;21788;-73
2022/06/15 11:41:15;;;;;;;1.65;0.45;;;;;;;28.49;22.59;100222.56;1758698;81;21029;-72
2022/06/15 11:43:44;;;;;;;0.90;0.50;;;;;;;28.28;23.44;100218.14;1757062;80;21060;-73
2022/06/15 11:46:55;;;;;;;2.08;0.80;;;;;;;28.03;24.06;100217.61;1758859;81;21080;-71
2022/06/15 11:49:35;;;;;;;1.20;0.68;;;;;;;27.78;24.93;100226.17;1758688;81;21065;-72
2022/06/15 11:52:22;;;;;;;2.45;0.60;;;;;;;27.30;25.57;100222.31;1758614;81;21131;-72
2022/06/15 11:55:18;;;;;;;2.40;0.78;;;;;;;27.18;26.32;100230.34;1758853;81;21593;-71
2022/06/15 11:58:22;;;;;;;1.75;0.60;;;;;;;27.23;26.49;100228.54;1758930;81;21045;-72
2022/06/15 12:01:25;;;;;;;2.05;0.80;;;;;;;27.46;25.00;100224.73;1758372;81;21093;-72
2022/06/15 12:04:29;;;;;;;1.55;0.53;;;;;;;27.56;25.38;100207.85;1735504;80;21053;-72
2022/06/15 12:07:03;;;;;;;2.45;0.80;;;;;;;27.32;24.94;100211.34;1748133;81;21179;-74
2022/06/15 12:10:07;;;;;;;2.20;0.70;;;;;;;27.18;24.83;100223.08;1748084;82;21112;-72
2022/06/15 12:12:46;;;;;;;6.15;0.70;;;;;;;27.14;23.96;100214.09;1748042;82;21065;-73
2022/06/15 12:15:51;;;;;;;2.58;0.70;;;;;;;26.46;25.53;100220.27;1747898;82;21101;-73
2022/06/15 12:18:41;;;;;;;1.25;0.70;;;;;;;26.21;26.12;100218.72;1747409;82;21128;-73
2022/06/15 12:21:26;;;;;;;2.83;0.57;;;;;;;25.98;26.90;100214.30;1747822;82;21123;-71
2022/06/15 12:24:17;;;;;;;2.72;0.90;;;;;;;25.76;27.79;100223.64;1747710;81;21058;-73
2022/06/15 12:27:04;;;;;;;1.32;0.70;;;;;;;25.53;27.64;100233.50;1747913;81;21066;-72
2022/06/15 12:29:51;;;;;;;3.12;0.90;;;;;;;25.56;28.23;100228.81;1747684;82;21514;-73
2022/06/15 12:35:29;;;;;;;2.50;0.75;;;;;;;25.81;27.61;100209.70;1747636;81;21147;-71
2022/06/15 12:38:21;;;;;;;2.60;0.75;;;;;;;25.89;27.85;100217.92;1747419;82;21029;-73
2022/06/15 12:42:09;;;;;;;2.60;0.80;;;;;;;25.87;27.51;100215.36;1747644;81;21097;-73
2022/06/15 12:43:45;;;;;;;1.80;0.80;;;;;;;25.83;28.17;100213.09;1743517;82;21711;-73
2022/06/15 12:46:16;;;;;;;1.95;0.62;;;;;;;25.79;28.49;100214.39;1747976;82;21089;-73
2022/06/15 12:48:58;;;;;;;3.92;0.70;;;;;;;25.81;28.83;100217.79;1747519;82;21774;-72
2022/06/15 12:51:47;;;;;;;1.37;0.45;;;;;;;25.79;27.72;100215.27;1747147;82;21069;-72
2022/06/15 12:54:37;;;;;;;5.00;1.20;;;;;;;25.59;27.76;100224.48;1747788;82;21088;-73
2022/06/15 12:57:40;;;;;;;4.60;0.82;;;;;;;25.73;28.60;100212.66;1706097;82;21640;-73
2022/06/15 13:00:31;;;;;;;1.80;0.75;;;;;;;25.87;28.19;100225.31;1747245;82;21608;-72
2022/06/15 13:03:30;;;;;;;3.12;1.35;;;;;;;25.82;26.87;100218.16;1747419;82;21750;-73
2022/06/15 13:06:27;;;;;;;2.40;0.78;;;;;;;25.81;27.78;100215.09;1747389;80;21058;-72
2022/06/15 13:09:15;;;;;;;1.98;0.93;;;;;;;25.84;27.54;100212.11;1747778;82;21064;-72
2022/06/15 13:11:52;;;;;;;1.65;0.85;;;;;;;25.90;28.20;100216.91;1747453;81;21089;-73
2022/06/15 13:14:23;;;;;;;1.77;0.80;;;;;;;25.84;27.82;100209.41;1747595;82;21116;-72
2022/06/15 13:17:07;;;;;;;2.47;1.00;;;;;;;25.78;26.53;100199.22;1747669;82;21096;-71
2022/06/15 13:19:45;;;;;;;2.17;0.98;;;;;;;25.75;27.57;100203.92;1747886;82;21065;-72
2022/06/15 13:22:16;;;;;;;2.20;0.72;;;;;;;25.76;26.88;100206.11;1747554;82;21054;-73
2022/06/15 13:25:07;;;;;;;;;;;;;;;25.56;27.20;100201.38;1750401;82;21054;-73
2022/06/15 13:27:40;;;;;;;1.30;0.85;;;;;;;25.52;27.78;100198.62;1747789;82;20193;-73